createdAt,value
2017-01-11T00:00:09.875Z,0
2017-01-11T00:01:20.613Z,0
2017-01-11T00:02:31.358Z,0
2017-01-11T00:03:42.076Z,0
2017-01-11T00:04:51.627Z,0
2017-01-11T00:06:02.374Z,0
2017-01-11T00:07:13.106Z,0
2017-01-11T00:08:23.828Z,0
2017-01-11T00:09:33.779Z,0
2017-01-11T00:10:44.513Z,0
2017-01-11T00:11:54.859Z,0
2017-01-11T00:13:05.597Z,0
2017-01-11T00:14:16.328Z,0
2017-01-11T00:15:26.684Z,0
2017-01-11T00:16:37.411Z,0
2017-01-11T00:17:47.827Z,0
2017-01-11T00:18:58.538Z,0
2017-01-11T00:20:09.275Z,0
2017-01-11T00:21:19.632Z,0
2017-01-11T00:22:30.370Z,0
2017-01-11T00:23:41.100Z,0
2017-01-11T00:24:51.844Z,0
2017-01-11T00:26:02.583Z,0
2017-01-11T00:27:13.309Z,0
2017-01-11T00:28:23.667Z,0
2017-01-11T00:29:34.017Z,0
2017-01-11T00:30:43.961Z,0
2017-01-11T00:31:54.694Z,0
2017-01-11T00:33:05.438Z,0
2017-01-11T00:34:16.170Z,0
2017-01-11T00:35:26.520Z,0
2017-01-11T00:36:37.263Z,0
2017-01-11T00:37:48.000Z,0
2017-01-11T00:38:58.736Z,0
2017-01-11T00:40:09.471Z,0
2017-01-11T00:41:19.444Z,0
2017-01-11T00:42:30.198Z,0
2017-01-11T00:43:40.189Z,0
2017-01-11T00:44:50.135Z,0
2017-01-11T00:46:00.872Z,0
2017-01-11T00:47:11.604Z,0
2017-01-11T00:48:22.350Z,0
2017-01-11T00:49:33.073Z,0
2017-01-11T00:50:43.819Z,0
2017-01-11T00:51:54.152Z,0
2017-01-11T00:53:04.516Z,0
2017-01-11T00:54:14.913Z,0
2017-01-11T00:55:24.466Z,0
2017-01-11T00:56:34.802Z,0
2017-01-11T00:57:45.145Z,0
2017-01-11T00:58:55.480Z,0
2017-01-11T01:00:05.827Z,0
2017-01-11T01:01:16.584Z,0
2017-01-11T01:02:26.530Z,0
2017-01-11T01:03:37.269Z,0
2017-01-11T01:04:48.024Z,0
2017-01-11T01:05:58.766Z,0
2017-01-11T01:07:09.515Z,0
2017-01-11T01:08:20.250Z,0
2017-01-11T01:09:30.992Z,0
2017-01-11T01:10:41.744Z,0
2017-01-11T01:11:52.111Z,0
2017-01-11T01:13:02.847Z,0
2017-01-11T01:14:13.196Z,0
2017-01-11T01:15:24.000Z,0
2017-01-11T01:16:34.772Z,0
2017-01-11T01:17:45.110Z,0
2017-01-11T01:18:55.452Z,0
2017-01-11T01:20:05.776Z,0
2017-01-11T01:21:16.519Z,0
2017-01-11T01:22:27.256Z,0
2017-01-11T01:23:38.006Z,0
2017-01-11T01:24:48.349Z,0
2017-01-11T01:25:59.088Z,0
2017-01-11T01:27:09.833Z,0
2017-01-11T01:28:20.565Z,0
2017-01-11T01:29:31.283Z,0
2017-01-11T01:30:41.617Z,0
2017-01-11T01:31:52.346Z,0
2017-01-11T01:33:03.318Z,0
2017-01-11T01:34:13.660Z,0
2017-01-11T01:35:24.397Z,0
2017-01-11T01:36:35.153Z,0
2017-01-11T01:37:45.899Z,0
2017-01-11T01:38:56.640Z,0
2017-01-11T01:40:07.362Z,0
2017-01-11T01:41:17.706Z,0
2017-01-11T01:42:28.042Z,0
2017-01-11T01:43:38.783Z,0
2017-01-11T01:44:49.119Z,0
2017-01-11T01:45:59.858Z,0
2017-01-11T01:47:10.198Z,0
2017-01-11T01:48:20.527Z,0
2017-01-11T01:49:30.863Z,0
2017-01-11T01:50:41.607Z,0
2017-01-11T01:51:52.358Z,0
2017-01-11T01:53:03.117Z,0
2017-01-11T01:54:13.844Z,0
2017-01-11T01:55:24.181Z,0
2017-01-11T01:56:34.921Z,0
2017-01-11T01:57:45.251Z,0
2017-01-11T01:58:55.991Z,0
2017-01-11T02:00:05.932Z,0
2017-01-11T02:01:16.666Z,0
2017-01-11T02:02:27.459Z,0
2017-01-11T02:03:38.215Z,0
2017-01-11T02:04:48.982Z,0
2017-01-11T02:05:59.311Z,0
2017-01-11T02:07:10.047Z,0
2017-01-11T02:08:19.997Z,0
2017-01-11T02:09:30.368Z,0
2017-01-11T02:10:40.714Z,0
2017-01-11T02:11:51.462Z,0
2017-01-11T02:13:01.792Z,0
2017-01-11T02:14:12.134Z,0
2017-01-11T02:15:22.881Z,0
2017-01-11T02:16:33.622Z,0
2017-01-11T02:17:43.967Z,0
2017-01-11T02:18:54.699Z,0
2017-01-11T02:20:05.037Z,0
2017-01-11T02:21:15.384Z,0
2017-01-11T02:22:26.131Z,0
2017-01-11T02:23:36.863Z,0
2017-01-11T02:24:47.611Z,0
2017-01-11T02:25:58.344Z,0
2017-01-11T02:27:09.068Z,0
2017-01-11T02:28:19.800Z,0
2017-01-11T02:29:30.520Z,0
2017-01-11T02:30:40.861Z,0
2017-01-11T02:31:51.604Z,0
2017-01-11T02:33:02.344Z,0
2017-01-11T02:34:12.688Z,0
2017-01-11T02:35:24.834Z,0
2017-01-11T02:36:35.579Z,0
2017-01-11T02:37:46.317Z,0
2017-01-11T02:38:57.069Z,0
2017-01-11T02:40:07.804Z,0
2017-01-11T02:41:18.551Z,0
2017-01-11T02:42:28.893Z,0
2017-01-11T02:43:39.626Z,0
2017-01-11T02:44:50.351Z,0
2017-01-11T02:46:01.081Z,0
2017-01-11T02:47:11.817Z,0
2017-01-11T02:48:22.554Z,0
2017-01-11T02:49:33.288Z,0
2017-01-11T02:50:43.664Z,0
2017-01-11T02:51:54.391Z,0
2017-01-11T02:53:04.734Z,0
2017-01-11T02:54:15.489Z,0
2017-01-11T02:55:26.231Z,0
2017-01-11T02:56:36.961Z,0
2017-01-11T02:57:47.727Z,0
2017-01-11T02:58:58.097Z,0
2017-01-11T03:00:08.444Z,0
2017-01-11T03:01:19.185Z,0
2017-01-11T03:02:29.516Z,0
2017-01-11T03:34:20.661Z,0
2017-01-11T03:35:31.389Z,0
2017-01-11T03:36:42.121Z,0
2017-01-11T03:37:52.845Z,0
2017-01-11T03:39:03.177Z,0
2017-01-11T03:40:13.929Z,0
2017-01-11T03:41:24.681Z,0
2017-01-11T03:42:35.409Z,0
2017-01-11T03:43:46.157Z,0
2017-01-11T03:44:56.504Z,0
2017-01-11T03:46:06.845Z,0
2017-01-11T03:47:17.590Z,0
2017-01-11T03:48:27.923Z,0
2017-01-11T03:49:38.650Z,0
2017-01-11T03:50:48.996Z,0
2017-01-11T03:51:59.718Z,0
2017-01-11T03:53:10.064Z,0
2017-01-11T03:54:20.405Z,0
2017-01-11T03:55:31.185Z,0
2017-01-11T03:56:41.926Z,0
2017-01-11T03:57:51.887Z,0
2017-01-11T03:59:02.620Z,0
2017-01-11T04:00:12.978Z,0
2017-01-11T04:01:23.718Z,0
2017-01-11T04:02:34.060Z,0
2017-01-11T04:03:44.403Z,4
2017-01-11T04:04:55.128Z,0
2017-01-11T04:06:05.863Z,4
2017-01-11T04:07:16.607Z,4
2017-01-11T04:08:27.369Z,4
2017-01-11T04:09:38.106Z,0
2017-01-11T04:10:48.448Z,0
2017-01-11T04:11:58.789Z,0
2017-01-11T04:13:09.531Z,0
2017-01-11T04:14:19.478Z,0
2017-01-11T04:15:30.212Z,0
2017-01-11T04:16:40.943Z,0
2017-01-11T04:17:51.275Z,4
2017-01-11T04:19:01.627Z,4
2017-01-11T04:20:12.366Z,0
2017-01-11T04:21:23.099Z,4
2017-01-11T04:22:33.854Z,0
2017-01-11T04:23:44.592Z,0
2017-01-11T04:24:55.366Z,4
2017-01-11T04:26:06.089Z,0
2017-01-11T04:27:16.821Z,0
2017-01-11T04:28:27.162Z,0
2017-01-11T04:29:37.882Z,4
2017-01-11T04:30:48.621Z,0
2017-01-11T04:31:59.376Z,0
2017-01-11T04:33:10.118Z,0
2017-01-11T04:34:20.470Z,4
2017-01-11T04:35:31.196Z,4
2017-01-11T04:36:41.938Z,0
2017-01-11T04:37:52.701Z,4
2017-01-11T04:39:03.057Z,0
2017-01-11T04:40:13.400Z,0
2017-01-11T04:41:23.755Z,4
2017-01-11T04:42:34.487Z,4
2017-01-11T04:43:45.209Z,4
2017-01-11T04:44:55.943Z,0
2017-01-11T04:46:06.289Z,0
2017-01-11T04:47:17.021Z,4
2017-01-11T04:48:27.386Z,4
2017-01-11T04:49:38.124Z,0
2017-01-11T04:50:48.442Z,0
2017-01-11T04:51:59.193Z,4
2017-01-11T04:53:09.933Z,4
2017-01-11T04:54:20.671Z,4
2017-01-11T04:55:31.435Z,4
2017-01-11T04:56:42.156Z,4
2017-01-11T04:57:52.508Z,4
2017-01-11T04:59:03.242Z,4
2017-01-11T05:00:13.836Z,4
2017-01-11T05:01:24.585Z,4
2017-01-11T05:02:34.912Z,4
2017-01-11T05:03:45.654Z,4
2017-01-11T05:04:56.016Z,4
2017-01-11T05:06:06.362Z,4
2017-01-11T05:07:16.719Z,4
2017-01-11T05:08:27.455Z,4
2017-01-11T05:09:37.784Z,4
2017-01-11T05:10:48.525Z,4
2017-01-11T05:11:59.256Z,4
2017-01-11T05:13:09.600Z,4
2017-01-11T05:14:19.974Z,4
2017-01-11T05:15:30.722Z,4
2017-01-11T05:16:41.469Z,4
2017-01-11T05:17:52.232Z,4
2017-01-11T05:19:03.003Z,4
2017-01-11T05:20:13.744Z,4
2017-01-11T05:21:24.495Z,4
2017-01-11T05:22:34.847Z,4
2017-01-11T05:23:45.183Z,4
2017-01-11T05:24:55.919Z,4
2017-01-11T05:26:06.262Z,4
2017-01-11T05:27:16.997Z,4
2017-01-11T05:28:27.735Z,4
2017-01-11T05:29:38.074Z,4
2017-01-11T05:30:48.414Z,4
2017-01-11T05:31:59.145Z,4
2017-01-11T05:33:09.713Z,4
2017-01-11T05:34:20.459Z,4
2017-01-11T05:35:31.216Z,4
2017-01-11T05:36:41.982Z,4
2017-01-11T05:37:52.329Z,4
2017-01-11T05:39:02.674Z,4
2017-01-11T05:40:13.403Z,4
2017-01-11T05:41:24.130Z,4
2017-01-11T05:42:34.852Z,0
2017-01-11T05:43:45.597Z,4
2017-01-11T05:44:56.324Z,4
2017-01-11T05:46:06.683Z,4
2017-01-11T05:47:17.429Z,4
2017-01-11T05:48:27.788Z,4
2017-01-11T05:49:39.625Z,4
2017-01-11T05:50:50.358Z,4
2017-01-11T05:52:01.090Z,4
2017-01-11T05:53:11.859Z,4
2017-01-11T05:54:22.597Z,4
2017-01-11T05:55:33.341Z,4
2017-01-11T05:56:44.061Z,4
2017-01-11T05:57:54.802Z,4
2017-01-11T05:59:05.538Z,4
2017-01-11T06:00:15.870Z,4
2017-01-11T06:01:26.200Z,4
2017-01-11T06:02:36.929Z,4
2017-01-11T06:03:47.662Z,4
2017-01-11T06:04:57.218Z,4
2017-01-11T06:06:07.556Z,4
2017-01-11T06:07:18.286Z,0
2017-01-11T06:08:29.027Z,0
2017-01-11T06:09:40.003Z,0
2017-01-11T06:10:50.726Z,4
2017-01-11T06:12:01.453Z,4
2017-01-11T06:13:11.015Z,4
2017-01-11T06:14:21.765Z,4
2017-01-11T06:15:32.091Z,4
2017-01-11T06:16:42.833Z,8
2017-01-11T06:17:53.561Z,8
2017-01-11T06:19:03.547Z,8
2017-01-11T06:20:14.274Z,8
2017-01-11T06:21:25.016Z,12
2017-01-11T06:22:35.366Z,12
2017-01-11T06:23:46.096Z,16
2017-01-11T06:24:56.826Z,20
2017-01-11T06:26:07.570Z,24
2017-01-11T06:27:18.294Z,32
2017-01-11T06:28:28.627Z,36
2017-01-11T06:29:39.333Z,40
2017-01-11T06:30:50.069Z,44
2017-01-11T06:32:00.025Z,56
2017-01-11T06:33:10.773Z,64
2017-01-11T06:34:21.113Z,72
2017-01-11T06:35:31.859Z,80
2017-01-11T06:36:42.578Z,92
2017-01-11T06:37:53.319Z,100
2017-01-11T06:39:03.681Z,116
2017-01-11T06:40:14.411Z,128
2017-01-11T06:41:24.348Z,140
2017-01-11T06:42:35.087Z,156
2017-01-11T06:43:45.836Z,176
2017-01-11T06:44:56.174Z,192
2017-01-11T06:46:06.527Z,212
2017-01-11T06:47:17.259Z,232
2017-01-11T06:48:27.203Z,248
2017-01-11T06:49:37.545Z,268
2017-01-11T06:50:48.272Z,292
2017-01-11T06:51:58.619Z,316
2017-01-11T06:53:08.961Z,340
2017-01-11T06:54:19.293Z,368
2017-01-11T06:55:30.031Z,392
2017-01-11T06:56:40.981Z,420
2017-01-11T06:57:51.709Z,448
2017-01-11T06:59:02.449Z,476
2017-01-11T07:00:13.190Z,504
2017-01-11T07:01:23.924Z,536
2017-01-11T07:02:34.655Z,572
2017-01-11T07:03:45.395Z,604
2017-01-11T07:04:56.132Z,648
2017-01-11T07:06:06.494Z,688
2017-01-11T07:07:16.836Z,740
2017-01-11T07:08:27.582Z,788
2017-01-11T07:09:38.310Z,836
2017-01-11T07:10:48.266Z,880
2017-01-11T07:11:59.013Z,920
2017-01-11T07:13:09.749Z,952
2017-01-11T07:14:20.472Z,996
2017-01-11T07:15:30.802Z,1044
2017-01-11T07:16:41.154Z,1096
2017-01-11T07:17:51.941Z,1144
2017-01-11T07:19:02.277Z,1188
2017-01-11T07:20:13.004Z,1220
2017-01-11T07:21:23.732Z,1236
2017-01-11T07:22:34.498Z,1264
2017-01-11T07:23:44.854Z,1304
2017-01-11T07:24:55.590Z,1324
2017-01-11T07:26:06.356Z,1392
2017-01-11T07:27:17.081Z,1444
2017-01-11T07:28:27.806Z,1512
2017-01-11T07:29:38.538Z,1564
2017-01-11T07:30:48.883Z,1616
2017-01-11T07:31:59.622Z,1668
2017-01-11T07:33:10.377Z,1724
2017-01-11T07:34:21.121Z,1792
2017-01-11T07:35:31.846Z,1848
2017-01-11T07:36:42.565Z,1908
2017-01-11T07:37:52.517Z,1956
2017-01-11T07:39:03.267Z,2000
2017-01-11T07:40:14.013Z,2044
2017-01-11T07:41:24.769Z,2092
2017-01-11T07:42:35.111Z,2144
2017-01-11T07:43:45.852Z,2184
2017-01-11T07:44:56.585Z,2240
2017-01-11T07:46:07.318Z,2244
2017-01-11T07:47:18.058Z,2304
2017-01-11T07:48:28.800Z,2344
2017-01-11T07:49:39.553Z,2392
2017-01-11T07:50:50.279Z,2428
2017-01-11T07:52:00.209Z,2460
2017-01-11T07:53:10.941Z,2480
2017-01-11T07:54:21.669Z,2528
2017-01-11T07:55:32.405Z,2600
2017-01-11T07:56:43.146Z,2648
2017-01-11T07:57:53.898Z,2664
2017-01-11T07:59:04.645Z,2704
2017-01-11T08:00:14.976Z,2768
2017-01-11T08:01:25.743Z,2832
2017-01-11T08:02:35.700Z,2888
2017-01-11T08:03:46.447Z,2904
2017-01-11T08:04:57.183Z,2936
2017-01-11T08:06:07.931Z,2996
2017-01-11T08:07:18.678Z,3032
2017-01-11T08:08:29.433Z,3056
2017-01-11T08:09:40.180Z,3096
2017-01-11T08:10:50.126Z,3148
2017-01-11T08:12:00.469Z,3204
2017-01-11T08:13:11.225Z,3244
2017-01-11T08:14:21.176Z,3260
2017-01-11T08:15:31.924Z,3332
2017-01-11T08:16:42.697Z,3360
2017-01-11T08:17:52.645Z,3412
2017-01-11T08:19:03.408Z,3452
2017-01-11T08:20:14.156Z,3488
2017-01-11T08:21:24.886Z,3604
2017-01-11T08:22:34.831Z,3712
2017-01-11T08:23:45.171Z,3764
2017-01-11T08:24:55.501Z,3852
2017-01-11T08:26:05.835Z,3864
2017-01-11T08:27:16.576Z,3776
2017-01-11T08:28:27.304Z,3820
2017-01-11T08:29:38.035Z,3864
2017-01-11T08:30:48.001Z,3908
2017-01-11T08:31:57.953Z,3976
2017-01-11T08:33:08.687Z,4000
2017-01-11T08:34:19.020Z,4052
2017-01-11T08:35:29.757Z,4076
2017-01-11T08:36:40.519Z,4092
2017-01-11T08:37:51.236Z,4116
2017-01-11T08:39:01.972Z,4180
2017-01-11T08:40:12.700Z,4200
2017-01-11T08:41:22.656Z,4244
2017-01-11T08:42:33.398Z,4292
2017-01-11T08:43:43.745Z,4336
2017-01-11T08:44:54.473Z,4388
2017-01-11T08:46:05.213Z,4420
2017-01-11T08:47:15.156Z,4456
2017-01-11T08:48:25.925Z,4484
2017-01-11T08:49:36.277Z,4540
2017-01-11T08:50:47.025Z,4608
2017-01-11T08:51:57.781Z,4632
2017-01-11T08:53:08.518Z,4652
2017-01-11T08:54:19.246Z,4676
2017-01-11T08:55:29.591Z,4728
2017-01-11T08:56:40.334Z,4752
2017-01-11T08:57:51.096Z,4780
2017-01-11T08:59:01.436Z,4804
2017-01-11T09:00:12.183Z,4852
2017-01-11T09:01:22.530Z,4900
2017-01-11T09:02:32.873Z,4928
2017-01-11T09:03:43.283Z,4940
2017-01-11T09:04:54.025Z,4996
2017-01-11T09:06:04.762Z,5020
2017-01-11T09:07:15.519Z,5064
2017-01-11T09:08:26.290Z,5088
2017-01-11T09:09:36.630Z,5096
2017-01-11T09:10:47.380Z,5144
2017-01-11T09:11:58.106Z,5176
2017-01-11T09:13:08.840Z,5212
2017-01-11T09:14:19.226Z,5276
2017-01-11T09:15:29.985Z,5304
2017-01-11T09:16:40.720Z,5620
2017-01-11T09:17:51.470Z,6080
2017-01-11T09:19:02.209Z,5920
2017-01-11T09:20:12.944Z,5836
2017-01-11T09:21:23.680Z,5728
2017-01-11T09:22:34.449Z,6560
2017-01-11T09:23:44.813Z,7292
2017-01-11T09:24:55.160Z,7284
2017-01-11T09:26:05.902Z,7068
2017-01-11T09:27:16.649Z,7064
2017-01-11T09:28:26.593Z,6992
2017-01-11T09:29:37.333Z,7108
2017-01-11T09:30:48.080Z,7344
2017-01-11T09:31:58.436Z,8000
2017-01-11T09:33:09.177Z,8360
2017-01-11T09:34:19.524Z,8644
2017-01-11T09:35:30.256Z,7512
2017-01-11T09:36:40.619Z,6388
2017-01-11T09:37:51.364Z,6448
2017-01-11T09:39:02.333Z,9096
2017-01-11T09:40:12.693Z,11752
2017-01-11T09:41:23.428Z,7816
2017-01-11T09:42:33.393Z,6348
2017-01-11T09:43:44.167Z,6064
2017-01-11T09:44:54.896Z,6096
2017-01-11T09:46:05.638Z,6132
2017-01-11T09:47:15.972Z,6188
2017-01-11T09:48:25.923Z,6248
2017-01-11T09:49:36.685Z,6288
2017-01-11T09:50:47.022Z,6300
2017-01-11T09:51:56.979Z,6356
2017-01-11T09:53:07.327Z,6416
2017-01-11T09:54:18.060Z,6456
2017-01-11T09:55:28.789Z,6480
2017-01-11T09:56:39.527Z,6504
2017-01-11T09:57:49.866Z,6508
2017-01-11T09:59:00.638Z,6516
2017-01-11T10:00:10.986Z,6544
2017-01-11T10:01:21.353Z,6536
2017-01-11T10:02:32.101Z,6536
2017-01-11T10:03:42.838Z,6532
2017-01-11T10:04:53.604Z,6548
2017-01-11T10:06:03.941Z,6596
2017-01-11T10:07:14.902Z,6600
2017-01-11T10:08:25.689Z,6632
2017-01-11T10:09:36.035Z,6640
2017-01-11T10:10:46.386Z,6660
2017-01-11T10:11:57.143Z,6664
2017-01-11T10:13:07.910Z,6688
2017-01-11T10:14:18.647Z,6712
2017-01-11T10:15:28.595Z,6752
2017-01-11T10:16:39.333Z,6772
2017-01-11T10:17:50.076Z,6772
2017-01-11T10:19:00.813Z,6788
2017-01-11T10:20:11.169Z,6824
2017-01-11T10:21:21.905Z,6760
2017-01-11T10:22:32.653Z,6732
2017-01-11T10:23:43.419Z,6748
2017-01-11T10:24:54.153Z,6800
2017-01-11T10:26:04.492Z,6812
2017-01-11T10:27:14.855Z,6824
2017-01-11T10:28:25.586Z,6808
2017-01-11T10:29:35.937Z,6828
2017-01-11T10:30:46.679Z,6816
2017-01-11T10:31:57.018Z,6848
2017-01-11T10:33:07.357Z,6840
2017-01-11T10:34:18.095Z,6840
2017-01-11T10:35:28.855Z,6864
2017-01-11T10:36:38.830Z,6852
2017-01-11T10:37:48.828Z,6808
2017-01-11T10:38:59.155Z,6840
2017-01-11T10:40:09.898Z,6820
2017-01-11T10:41:19.839Z,6848
2017-01-11T10:42:30.195Z,6856
2017-01-11T10:43:40.931Z,6832
2017-01-11T10:44:51.673Z,6816
2017-01-11T10:46:02.012Z,6780
2017-01-11T10:47:11.971Z,6836
2017-01-11T10:48:22.771Z,6860
2017-01-11T10:49:33.771Z,6896
2017-01-11T10:50:44.507Z,6968
2017-01-11T10:51:54.843Z,7012
2017-01-11T10:53:05.585Z,7040
2017-01-11T10:54:15.947Z,7072
2017-01-11T10:55:26.687Z,7116
2017-01-11T10:56:36.640Z,7148
2017-01-11T10:57:46.987Z,7176
2017-01-11T10:58:57.725Z,7136
2017-01-11T11:00:08.066Z,7192
2017-01-11T11:01:18.794Z,7232
2017-01-11T11:02:29.169Z,7208
2017-01-11T11:03:39.531Z,7268
2017-01-11T11:04:49.874Z,7256
2017-01-11T11:06:00.618Z,7320
2017-01-11T11:07:10.982Z,7272
2017-01-11T11:08:21.347Z,7260
2017-01-11T11:09:31.694Z,7300
2017-01-11T11:10:42.459Z,7284
2017-01-11T11:11:52.803Z,7288
2017-01-11T11:13:03.554Z,7276
2017-01-11T11:14:14.293Z,7268
2017-01-11T11:15:25.027Z,7264
2017-01-11T11:16:35.239Z,7284
2017-01-11T11:17:45.581Z,7304
2017-01-11T11:18:55.924Z,7364
2017-01-11T11:20:05.874Z,7360
2017-01-11T11:21:16.216Z,7380
2017-01-11T11:22:26.560Z,7352
2017-01-11T11:23:36.921Z,7376
2017-01-11T11:24:47.253Z,7380
2017-01-11T11:25:57.589Z,7348
2017-01-11T11:27:07.947Z,7452
2017-01-11T11:28:17.897Z,7508
2017-01-11T11:29:28.633Z,7552
2017-01-11T11:30:39.356Z,7636
2017-01-11T11:31:50.101Z,7724
2017-01-11T11:33:00.440Z,7760
2017-01-11T11:34:11.187Z,7816
2017-01-11T11:35:21.932Z,7792
2017-01-11T11:36:32.670Z,7776
2017-01-11T11:37:43.424Z,7756
2017-01-11T11:38:54.167Z,7676
2017-01-11T11:40:04.910Z,7624
2017-01-11T11:41:15.651Z,7632
2017-01-11T11:42:26.389Z,7632
2017-01-11T11:43:36.776Z,7616
2017-01-11T11:44:47.527Z,7588
2017-01-11T11:45:57.886Z,7552
2017-01-11T11:47:08.221Z,7532
2017-01-11T11:48:18.962Z,7496
2017-01-11T11:49:29.688Z,7536
2017-01-11T11:50:39.633Z,7564
2017-01-11T11:51:49.972Z,7564
2017-01-11T11:53:00.306Z,7564
2017-01-11T11:54:11.056Z,7568
2017-01-11T11:55:21.010Z,7540
2017-01-11T11:56:31.796Z,7504
2017-01-11T11:57:42.546Z,7424
2017-01-11T11:58:52.088Z,7432
2017-01-11T12:00:02.445Z,7424
2017-01-11T12:01:13.176Z,7408
2017-01-11T12:02:23.524Z,7464
2017-01-11T12:03:34.296Z,7428
2017-01-11T12:04:44.644Z,7372
2017-01-11T12:05:55.374Z,7384
2017-01-11T12:07:05.347Z,7384
2017-01-11T12:08:15.702Z,7336
2017-01-11T12:09:26.454Z,7380
2017-01-11T12:10:37.213Z,7408
2017-01-11T12:11:47.960Z,7432
2017-01-11T12:12:58.148Z,7416
2017-01-11T12:14:08.876Z,7392
2017-01-11T12:15:19.208Z,7384
2017-01-11T12:16:28.766Z,7408
2017-01-11T12:17:39.117Z,7372
2017-01-11T12:18:49.880Z,7436
2017-01-11T12:20:00.656Z,7452
2017-01-11T12:21:10.632Z,7456
2017-01-11T12:22:21.442Z,7452
2017-01-11T12:23:32.186Z,7508
2017-01-11T12:24:42.941Z,7508
2017-01-11T12:25:53.343Z,7560
2017-01-11T12:27:04.086Z,7480
2017-01-11T12:28:13.672Z,7532
2017-01-11T12:29:24.025Z,7528
2017-01-11T12:30:33.972Z,7524
2017-01-11T12:31:44.738Z,7536
2017-01-11T12:32:55.495Z,7576
2017-01-11T12:34:05.443Z,7556
2017-01-11T12:35:15.384Z,7576
2017-01-11T12:36:25.345Z,7556
2017-01-11T12:37:35.706Z,7572
2017-01-11T12:38:45.683Z,7520
2017-01-11T12:39:56.447Z,7456
2017-01-11T12:41:06.839Z,7388
2017-01-11T12:42:16.839Z,7364
2017-01-11T12:43:27.632Z,7356
2017-01-11T12:44:38.113Z,7316
2017-01-11T12:45:48.509Z,7280
2017-01-11T12:46:58.487Z,7276
2017-01-11T12:48:09.248Z,7244
2017-01-11T12:49:20.026Z,7220
2017-01-11T12:50:30.807Z,7084
2017-01-11T12:51:41.534Z,7064
2017-01-11T12:52:51.870Z,7012
2017-01-11T12:54:02.218Z,6988
2017-01-11T12:55:12.974Z,6944
2017-01-11T12:56:23.705Z,6912
2017-01-11T12:57:34.036Z,6884
2017-01-11T12:58:44.782Z,6804
2017-01-11T12:59:55.165Z,6688
2017-01-11T13:01:05.537Z,6600
2017-01-11T13:02:16.341Z,6588
2017-01-11T13:03:26.917Z,6504
2017-01-11T13:04:37.665Z,6400
2017-01-11T13:05:47.628Z,6344
2017-01-11T13:06:58.375Z,6268
2017-01-11T13:08:09.117Z,6160
2017-01-11T13:09:19.853Z,6116
2017-01-11T13:10:30.605Z,6048
2017-01-11T13:11:40.987Z,5964
2017-01-11T13:12:50.964Z,5852
2017-01-11T13:14:01.731Z,5840
2017-01-11T13:15:12.083Z,5712
2017-01-11T13:16:22.448Z,5688
2017-01-11T13:17:32.812Z,5604
2017-01-11T13:18:42.804Z,5528
2017-01-11T13:19:53.175Z,5496
2017-01-11T13:21:03.543Z,5420
2017-01-11T13:22:13.517Z,5320
2017-01-11T13:23:23.877Z,5256
2017-01-11T13:24:34.646Z,5244
2017-01-11T13:25:44.614Z,5156
2017-01-11T13:26:54.960Z,5132
2017-01-11T13:28:05.309Z,5092
2017-01-11T13:29:16.068Z,4976
2017-01-11T13:30:25.654Z,4976
2017-01-11T13:31:36.002Z,4932
2017-01-11T13:32:46.831Z,4856
2017-01-11T13:33:57.189Z,4808
2017-01-11T13:35:07.953Z,4704
2017-01-11T13:36:18.709Z,4656
2017-01-11T13:37:29.457Z,4600
2017-01-11T13:38:40.226Z,4508
2017-01-11T13:39:50.601Z,4496
2017-01-11T13:41:01.391Z,4488
2017-01-11T13:42:11.748Z,4420
2017-01-11T13:43:21.716Z,4376
2017-01-11T13:44:32.485Z,4312
2017-01-11T13:45:43.244Z,4232
2017-01-11T13:46:53.599Z,4196
2017-01-11T13:48:03.174Z,4132
2017-01-11T13:49:13.531Z,4088
2017-01-11T13:50:24.278Z,4036
2017-01-11T13:51:34.639Z,3984
2017-01-11T13:52:44.607Z,3952
2017-01-11T13:53:55.343Z,3892
2017-01-11T13:55:06.093Z,3856
2017-01-11T13:56:16.050Z,3808
2017-01-11T13:57:26.833Z,3736
2017-01-11T13:58:37.243Z,3676
2017-01-11T13:59:47.642Z,3624
2017-01-11T14:00:57.989Z,3556
2017-01-11T14:02:08.345Z,3492
2017-01-11T14:03:18.333Z,3432
2017-01-11T14:04:28.688Z,3368
2017-01-11T14:05:39.438Z,3324
2017-01-11T14:06:49.784Z,3252
2017-01-11T14:08:00.565Z,3188
2017-01-11T14:09:11.312Z,3152
2017-01-11T14:10:21.649Z,3100
2017-01-11T14:11:32.014Z,3040
2017-01-11T14:12:42.801Z,2976
2017-01-11T14:13:52.377Z,2912
2017-01-11T14:15:03.129Z,2844
2017-01-11T14:16:13.485Z,2796
2017-01-11T14:17:24.225Z,2736
2017-01-11T14:18:34.584Z,2664
2017-01-11T14:19:45.336Z,2596
2017-01-11T14:20:55.683Z,2528
2017-01-11T14:22:05.660Z,2476
2017-01-11T14:23:16.421Z,2408
2017-01-11T14:24:27.168Z,2312
2017-01-11T14:25:37.915Z,2228
2017-01-11T14:26:48.662Z,2140
2017-01-11T14:27:59.404Z,2060
2017-01-11T14:29:09.760Z,1968
2017-01-11T14:30:20.508Z,1920
2017-01-11T14:31:30.473Z,1844
2017-01-11T14:32:40.039Z,1768
2017-01-11T14:33:50.430Z,1676
2017-01-11T14:35:01.189Z,1596
2017-01-11T14:36:11.157Z,1528
2017-01-11T14:37:21.927Z,1472
2017-01-11T14:38:31.903Z,1424
2017-01-11T14:39:42.654Z,1356
2017-01-11T14:40:53.401Z,1248
2017-01-11T14:42:03.753Z,1084
2017-01-11T14:43:14.521Z,988
2017-01-11T14:44:25.273Z,920
2017-01-11T14:45:35.623Z,864
2017-01-11T14:46:46.000Z,824
2017-01-11T14:47:55.968Z,788
2017-01-11T14:49:06.723Z,776
2017-01-11T14:50:17.480Z,728
2017-01-11T14:51:28.233Z,672
2017-01-11T14:52:38.994Z,640
2017-01-11T14:53:49.341Z,608
2017-01-11T14:55:00.114Z,580
2017-01-11T14:56:10.868Z,552
2017-01-11T14:57:21.217Z,532
2017-01-11T14:58:31.577Z,512
2017-01-11T14:59:41.529Z,484
2017-01-11T15:00:52.281Z,464
2017-01-11T15:02:03.032Z,444
2017-01-11T15:03:13.790Z,424
2017-01-11T15:04:23.762Z,404
2017-01-11T15:05:34.545Z,388
2017-01-11T15:06:44.906Z,364
2017-01-11T15:07:55.259Z,348
2017-01-11T15:09:06.029Z,328
2017-01-11T15:10:16.795Z,308
2017-01-11T15:11:27.176Z,288
2017-01-11T15:12:37.935Z,268
2017-01-11T15:13:48.314Z,248
2017-01-11T15:14:58.323Z,232
2017-01-11T15:16:09.093Z,220
2017-01-11T15:17:19.869Z,204
2017-01-11T15:18:30.621Z,188
2017-01-11T15:19:40.972Z,176
2017-01-11T15:20:51.725Z,160
2017-01-11T15:22:02.487Z,148
2017-01-11T15:23:13.248Z,136
2017-01-11T15:24:23.660Z,124
2017-01-11T15:25:34.423Z,112
2017-01-11T15:26:45.179Z,100
2017-01-11T15:27:55.946Z,88
2017-01-11T15:29:06.338Z,80
2017-01-11T15:30:17.114Z,72
2017-01-11T15:31:27.468Z,64
2017-01-11T15:32:37.867Z,56
2017-01-11T15:33:48.266Z,48
2017-01-11T15:34:59.035Z,40
2017-01-11T15:36:08.220Z,36
2017-01-11T15:37:18.607Z,28
2017-01-11T15:38:28.169Z,24
2017-01-11T15:39:38.545Z,24
2017-01-11T15:40:49.308Z,20
2017-01-11T15:42:00.080Z,16
2017-01-11T15:43:09.642Z,12
2017-01-11T15:44:19.617Z,8
2017-01-11T15:45:29.977Z,8
2017-01-11T15:46:40.339Z,8
2017-01-11T15:47:51.086Z,8
2017-01-11T15:49:01.826Z,8
2017-01-11T15:50:12.572Z,4
2017-01-11T15:51:22.932Z,4
2017-01-11T15:52:33.712Z,4
2017-01-11T15:53:44.084Z,4
2017-01-11T15:54:54.842Z,4
2017-01-11T15:56:04.804Z,0
2017-01-11T15:57:15.169Z,0
2017-01-11T15:58:25.540Z,0
2017-01-11T15:59:35.906Z,4
2017-01-11T16:00:46.274Z,4
2017-01-11T16:01:57.015Z,4
2017-01-11T16:03:07.379Z,4
2017-01-11T16:04:18.127Z,4
2017-01-11T16:05:28.484Z,4
2017-01-11T16:06:39.247Z,4
2017-01-11T16:07:49.996Z,4
2017-01-11T16:09:00.738Z,4
2017-01-11T16:10:10.295Z,4
2017-01-11T16:11:21.068Z,4
2017-01-11T16:12:31.800Z,4
2017-01-11T16:13:42.562Z,4
2017-01-11T16:14:52.520Z,4
2017-01-11T16:16:02.888Z,4
2017-01-11T16:17:12.857Z,4
2017-01-11T16:18:23.211Z,4
2017-01-11T16:19:33.962Z,4
2017-01-11T16:20:44.323Z,4
2017-01-11T16:21:54.709Z,4
2017-01-11T16:23:05.479Z,4
2017-01-11T16:24:16.226Z,4
2017-01-11T16:25:27.006Z,4
2017-01-11T16:26:37.367Z,4
2017-01-11T16:27:48.114Z,4
2017-01-11T16:28:58.872Z,4
2017-01-11T16:30:09.241Z,4
2017-01-11T16:31:19.989Z,4
2017-01-11T16:32:29.980Z,4
2017-01-11T16:33:40.727Z,4
2017-01-11T16:34:51.082Z,4
2017-01-11T16:36:01.423Z,4
2017-01-11T16:37:12.176Z,4
2017-01-11T16:38:22.532Z,4
2017-01-11T16:39:32.489Z,4
2017-01-11T16:40:42.854Z,4
2017-01-11T16:41:53.617Z,4
2017-01-11T16:43:04.375Z,4
2017-01-11T16:44:15.145Z,4
2017-01-11T16:45:25.913Z,4
2017-01-11T16:46:35.866Z,4
2017-01-11T16:47:46.616Z,4
2017-01-11T16:48:57.362Z,4
2017-01-11T16:50:08.118Z,4
2017-01-11T16:51:18.882Z,4
2017-01-11T16:52:29.263Z,4
2017-01-11T16:53:39.610Z,4
2017-01-11T16:54:50.424Z,4
2017-01-11T16:56:00.828Z,4